Time;durP1;ratioP1;P1;durP2;ratioP2;P2;SDS_P1;SDS_P2;PMS_P1;PMS_P2;Temp;Humidity;BMP_temperature;BMP_pressure;BME280_temperature;BME280_humidity;BME280_pressure;Samples;Min_cycle;Max_cycle;Signal;HPM_P1;HPM_P2
2023/10/15 00:01:45;;;;;;;8.20;1.67;;;10.10;99.90;;;;;;5018554;28;20025;-69
2023/10/15 00:04:12;;;;;;;6.95;1.50;;;9.90;99.90;;;;;;5019084;28;20022;-69
2023/10/15 00:06:38;;;;;;;6.82;2.42;;;9.90;99.90;;;;;;5018990;28;20022;-69
2023/10/15 00:09:04;;;;;;;6.43;3.10;;;9.70;99.90;;;;;;5019645;28;20055;-69
2023/10/15 00:11:30;;;;;;;7.78;2.40;;;9.60;99.90;;;;;;5019201;28;20018;-70
2023/10/15 00:13:55;;;;;;;7.70;3.25;;;9.40;99.90;;;;;;5018939;28;20099;-69
2023/10/15 00:16:22;;;;;;;6.85;2.42;;;9.30;99.90;;;;;;5019002;28;20079;-69
2023/10/15 00:18:48;;;;;;;3.30;1.48;;;9.30;99.90;;;;;;5019229;28;20033;-69
2023/10/15 00:21:14;;;;;;;3.60;1.20;;;9.30;99.90;;;;;;5018862;28;20014;-69
2023/10/15 00:23:42;;;;;;;2.33;1.08;;;9.40;99.90;;;;;;5017929;28;20026;-69
2023/10/15 00:26:11;;;;;;;6.05;1.17;;;9.40;99.90;;;;;;5017993;28;20041;-70
2023/10/15 00:28:37;;;;;;;4.18;1.25;;;9.40;99.90;;;;;;5018735;28;20072;-69
2023/10/15 00:31:08;;;;;;;3.92;1.40;;;9.30;99.90;;;;;;5018942;28;20017;-69
2023/10/15 00:33:34;;;;;;;6.03;1.40;;;9.50;99.90;;;;;;5018734;28;20109;-69
2023/10/15 00:35:59;;;;;;;11.48;1.65;;;9.50;99.90;;;;;;5018681;28;20068;-70
2023/10/15 00:38:25;;;;;;;5.28;1.02;;;9.50;99.90;;;;;;5018601;28;20022;-70
2023/10/15 00:41:00;;;;;;;4.90;1.25;;;9.50;99.90;;;;;;5017856;28;20022;-69
2023/10/15 00:43:30;;;;;;;4.45;1.30;;;9.40;99.90;;;;;;5017656;28;20022;-69
2023/10/15 00:45:56;;;;;;;2.83;1.17;;;9.20;99.90;;;;;;5017739;28;20022;-69
2023/10/15 00:48:33;;;;;;;12.65;1.50;;;9.10;99.90;;;;;;5018019;28;20022;-69
2023/10/15 00:51:00;;;;;;;7.72;1.40;;;9.10;99.90;;;;;;5018442;28;20022;-69
2023/10/15 00:53:28;;;;;;;3.10;1.23;;;9.20;99.90;;;;;;5018499;28;20082;-69
2023/10/15 00:56:02;;;;;;;6.03;1.30;;;9.20;99.90;;;;;;5018926;28;20080;-70
2023/10/15 00:58:32;;;;;;;7.50;1.30;;;9.10;99.90;;;;;;5018476;28;20018;-70
2023/10/15 01:03:53;;;;;;;2.60;1.17;;;8.80;99.90;;;;;;5017732;28;20026;-69
2023/10/15 01:09:27;;;;;;;13.02;1.45;;;8.60;99.90;;;;;;5018378;28;20036;-69
2023/10/15 01:11:56;;;;;;;5.93;1.20;;;8.80;99.90;;;;;;5017975;28;20088;-69
2023/10/15 01:14:27;;;;;;;5.15;0.98;;;8.70;99.90;;;;;;5018239;28;20143;-69
2023/10/15 01:16:53;;;;;;;;;;;8.60;99.90;;;;;;5018261;28;20022;-69
2023/10/15 01:19:20;;;;;;;3.67;1.40;;;8.70;99.90;;;;;;5018061;28;19955;-69
2023/10/15 01:21:58;;;;;;;5.70;1.38;;;8.70;99.90;;;;;;5018063;28;20049;-69
2023/10/15 01:24:33;;;;;;;3.90;1.45;;;8.70;99.90;;;;;;5017839;28;20030;-69
2023/10/15 01:26:59;;;;;;;5.97;1.05;;;8.70;99.90;;;;;;5017525;28;20116;-69
2023/10/15 01:29:28;;;;;;;2.85;1.13;;;8.70;99.90;;;;;;5017699;28;20029;-69
2023/10/15 01:32:03;;;;;;;2.10;0.98;;;8.50;99.90;;;;;;5017867;28;20022;-69
2023/10/15 01:34:44;;;;;;;5.75;1.52;;;8.40;99.90;;;;;;5017749;28;20025;-69
2023/10/15 01:39:52;;;;;;;4.30;1.05;;;8.30;99.90;;;;;;5017882;28;20026;-69
2023/10/15 01:44:58;;;;;;;4.75;1.13;;;8.50;99.90;;;;;;4998191;28;20027;-69
2023/10/15 01:47:34;;;;;;;6.88;1.33;;;8.50;99.90;;;;;;4997235;28;20026;-69
2023/10/15 01:50:00;;;;;;;3.35;1.50;;;8.70;99.90;;;;;;4997874;28;20034;-69
2023/10/15 01:52:29;;;;;;;3.15;1.20;;;8.60;99.90;;;;;;4997717;28;20026;-69
2023/10/15 01:54:55;;;;;;;3.53;1.10;;;8.50;99.90;;;;;;4996737;28;20022;-70
2023/10/15 01:57:22;;;;;;;4.43;1.20;;;8.60;99.90;;;;;;4996842;28;20030;-68
2023/10/15 01:59:47;;;;;;;3.78;1.60;;;8.50;99.90;;;;;;4997635;28;20113;-68
2023/10/15 02:02:23;;;;;;;7.45;1.15;;;8.60;99.90;;;;;;4997802;28;20150;-68
2023/10/15 02:04:50;;;;;;;4.15;1.17;;;8.50;99.90;;;;;;4997567;28;20018;-68
2023/10/15 02:07:20;;;;;;;2.38;1.17;;;8.40;99.90;;;;;;4997533;28;20084;-68
2023/10/15 02:09:50;;;;;;;3.60;1.35;;;8.40;99.90;;;;;;4997407;28;20037;-68
2023/10/15 02:12:20;;;;;;;3.58;1.33;;;8.20;99.90;;;;;;4997521;28;20106;-68
2023/10/15 02:14:51;;;;;;;2.15;1.25;;;8.10;99.90;;;;;;5000668;28;20081;-68
2023/10/15 02:17:24;;;;;;;4.60;1.50;;;8.00;99.90;;;;;;5001376;28;20098;-68
2023/10/15 02:19:55;;;;;;;4.70;0.90;;;7.90;99.90;;;;;;5001785;28;20047;-68
2023/10/15 02:22:21;;;;;;;2.58;1.20;;;7.90;99.90;;;;;;5001682;28;20025;-68
2023/10/15 02:24:46;;;;;;;3.72;1.70;;;7.80;99.90;;;;;;5001837;28;20023;-68
2023/10/15 02:27:23;;;;;;;7.82;1.20;;;7.80;99.90;;;;;;5001360;28;20036;-74
2023/10/15 02:29:49;;;;;;;4.50;1.10;;;7.90;99.90;;;;;;5001537;28;20034;-74
2023/10/15 02:32:27;;;;;;;5.43;1.38;;;8.00;99.90;;;;;;5000482;28;20041;-74
2023/10/15 02:34:54;;;;;;;10.35;1.63;;;8.10;99.90;;;;;;5000419;28;20113;-66
2023/10/15 02:37:26;;;;;;;3.97;1.02;;;7.90;99.90;;;;;;5001163;28;20026;-66
2023/10/15 02:39:51;;;;;;;;;;;7.80;99.90;;;;;;5000624;28;20025;-66
2023/10/15 02:42:30;;;;;;;3.30;1.25;;;7.80;99.90;;;;;;5000263;28;19910;-66
2023/10/15 02:44:58;;;;;;;2.78;1.10;;;7.70;99.90;;;;;;5001340;28;20030;-66
2023/10/15 02:47:48;;;;;;;3.05;1.20;;;7.50;99.90;;;;;;5001066;28;20049;-66
2023/10/15 02:50:23;;;;;;;9.77;1.83;;;7.50;99.90;;;;;;5001327;28;20046;-66
2023/10/15 02:52:49;;;;;;;4.85;1.30;;;7.50;99.90;;;;;;5000914;28;20029;-66
2023/10/15 02:55:14;;;;;;;2.97;0.95;;;7.60;99.90;;;;;;5000794;28;20026;-66
2023/10/15 02:57:44;;;;;;;5.35;1.15;;;7.60;99.90;;;;;;5000770;28;20101;-66
2023/10/15 03:00:18;;;;;;;5.45;1.00;;;7.60;99.90;;;;;;4999910;28;20018;-66
2023/10/15 03:02:45;;;;;;;8.05;1.30;;;7.60;99.90;;;;;;5000757;28;20023;-66
2023/10/15 03:05:15;;;;;;;2.30;1.17;;;7.60;99.90;;;;;;5000671;28;20025;-66
2023/10/15 03:07:42;;;;;;;3.75;1.23;;;7.70;99.90;;;;;;5000588;28;20057;-66
2023/10/15 03:10:12;;;;;;;5.13;1.42;;;7.60;99.90;;;;;;5000550;28;20022;-66
2023/10/15 03:12:48;;;;;;;5.25;1.15;;;7.30;99.90;;;;;;5000458;28;20069;-66
2023/10/15 03:15:15;;;;;;;4.55;1.70;;;7.40;99.90;;;;;;4999889;28;20049;-66
2023/10/15 03:17:47;;;;;;;8.40;1.60;;;7.50;99.90;;;;;;5000301;28;20084;-66
2023/10/15 03:22:44;;;;;;;3.85;1.35;;;7.50;99.90;;;;;;5000389;28;19906;-66
2023/10/15 03:25:16;;;;;;;4.18;2.00;;;7.40;99.90;;;;;;4999073;28;20027;-68
2023/10/15 03:27:51;;;;;;;3.92;1.50;;;7.30;99.90;;;;;;5000175;28;20034;-66
2023/10/15 03:30:23;;;;;;;3.17;0.98;;;7.30;99.90;;;;;;5000437;28;20060;-66
2023/10/15 03:32:49;;;;;;;7.50;2.03;;;7.20;99.90;;;;;;5000236;28;20022;-66
2023/10/15 03:35:18;;;;;;;3.90;1.50;;;7.10;99.90;;;;;;5000411;28;20101;-66
2023/10/15 03:37:47;;;;;;;3.60;1.10;;;7.30;99.90;;;;;;4999952;28;20026;-66
2023/10/15 03:43:15;;;;;;;9.88;1.73;;;7.40;99.90;;;;;;5000476;28;20084;-66
2023/10/15 03:45:53;;;;;;;7.28;1.20;;;7.40;99.90;;;;;;5000119;28;20030;-66
2023/10/15 03:48:21;;;;;;;3.53;1.13;;;7.30;99.90;;;;;;4999323;28;20035;-66
2023/10/15 03:50:53;;;;;;;3.13;1.25;;;7.20;99.90;;;;;;4999941;28;20196;-66
2023/10/15 03:53:35;;;;;;;4.53;1.92;;;7.10;99.90;;;;;;4999718;28;20019;-66
2023/10/15 03:56:04;;;;;;;2.97;1.52;;;7.10;99.90;;;;;;4999746;28;20022;-66
2023/10/15 03:58:32;;;;;;;7.78;1.63;;;7.00;99.90;;;;;;4999609;28;20027;-66
2023/10/15 04:03:43;;;;;;;6.65;1.20;;;6.80;99.90;;;;;;4999843;28;20034;-66
2023/10/15 04:06:10;;;;;;;5.78;1.45;;;6.70;99.90;;;;;;4999350;28;20097;-66
2023/10/15 04:08:37;;;;;;;5.57;1.42;;;6.50;99.90;;;;;;4999682;28;20019;-66
2023/10/15 04:11:03;;;;;;;3.95;1.48;;;6.50;99.90;;;;;;4999450;28;20097;-67
2023/10/15 04:13:29;;;;;;;5.13;1.30;;;6.60;99.90;;;;;;4999381;28;20019;-66
2023/10/15 04:15:56;;;;;;;5.35;1.70;;;6.70;99.90;;;;;;4999272;28;20022;-66
2023/10/15 04:18:25;;;;;;;4.45;2.45;;;6.80;99.90;;;;;;4999310;28;20029;-66
2023/10/15 04:20:52;;;;;;;4.72;1.25;;;6.90;99.90;;;;;;4999342;28;20041;-66
2023/10/15 04:23:30;;;;;;;3.63;1.27;;;7.00;99.90;;;;;;4998212;28;20053;-66
2023/10/15 04:25:59;;;;;;;3.05;1.10;;;7.00;99.90;;;;;;4998537;28;20022;-66
2023/10/15 04:28:25;;;;;;;6.20;1.65;;;7.00;99.90;;;;;;4999219;28;20076;-67
2023/10/15 04:30:51;;;;;;;4.40;1.25;;;6.90;99.90;;;;;;4999235;28;20026;-66
2023/10/15 04:33:20;;;;;;;7.45;1.42;;;6.90;99.90;;;;;;4998927;28;20377;-66
2023/10/15 04:35:48;;;;;;;3.15;1.10;;;6.90;99.90;;;;;;4999139;28;20019;-66
2023/10/15 04:38:21;;;;;;;5.05;1.08;;;6.90;99.90;;;;;;4998103;28;20030;-66
2023/10/15 04:43:24;;;;;;;3.75;1.48;;;6.60;99.90;;;;;;4999031;28;20026;-66
2023/10/15 04:45:50;;;;;;;1.65;1.00;;;6.40;99.90;;;;;;4997848;28;20030;-66
2023/10/15 04:48:16;;;;;;;5.22;1.00;;;6.30;99.90;;;;;;4998658;28;20054;-66
2023/10/15 04:50:45;;;;;;;2.50;1.05;;;6.30;99.90;;;;;;4998579;28;20026;-67
2023/10/15 04:53:17;;;;;;;5.65;1.77;;;6.30;99.90;;;;;;4998628;28;20026;-67
2023/10/15 04:55:43;;;;;;;2.92;1.00;;;6.40;99.90;;;;;;4997701;28;20030;-66
2023/10/15 04:58:12;;;;;;;5.53;1.25;;;6.50;99.90;;;;;;4998543;28;20034;-66
2023/10/15 05:00:43;;;;;;;3.05;1.10;;;6.60;99.90;;;;;;4997827;28;20022;-66
2023/10/15 05:03:09;;;;;;;4.80;1.10;;;6.70;99.90;;;;;;4998492;28;20019;-66
2023/10/15 05:05:35;;;;;;;3.17;0.88;;;6.70;99.90;;;;;;4998622;28;20146;-66
2023/10/15 05:08:01;;;;;;;4.50;1.40;;;6.70;99.90;;;;;;4997989;28;20077;-66
2023/10/15 05:10:32;;;;;;;6.35;1.75;;;6.70;99.90;;;;;;4997467;28;20149;-66
2023/10/15 05:12:59;;;;;;;5.45;1.40;;;6.60;99.90;;;;;;4997557;28;20037;-66
2023/10/15 05:15:25;;;;;;;5.45;1.25;;;6.80;99.90;;;;;;4998483;28;20106;-66
2023/10/15 05:17:50;;;;;;;2.95;1.10;;;6.70;99.90;;;;;;4997316;28;20053;-66
2023/10/15 05:20:16;;;;;;;10.52;1.35;;;6.60;99.90;;;;;;4998078;28;20030;-67
2023/10/15 05:22:42;;;;;;;8.85;1.20;;;6.40;99.90;;;;;;4997220;28;20026;-66
2023/10/15 05:25:20;;;;;;;2.65;1.13;;;6.50;99.90;;;;;;4998284;28;20061;-66
2023/10/15 05:27:49;;;;;;;2.17;1.33;;;6.50;99.90;;;;;;4997806;28;20112;-66
2023/10/15 05:30:15;;;;;;;2.80;1.35;;;6.40;99.90;;;;;;4997067;28;20033;-66
2023/10/15 05:32:45;;;;;;;5.13;1.20;;;6.40;99.90;;;;;;4997929;28;20105;-66
2023/10/15 05:35:12;;;;;;;2.47;0.98;;;6.40;99.90;;;;;;4997878;28;20033;-66
2023/10/15 05:37:41;;;;;;;5.13;1.52;;;6.40;99.90;;;;;;4997028;28;20026;-66
2023/10/15 05:40:08;;;;;;;4.95;1.52;;;6.40;99.90;;;;;;4997770;28;20022;-66
2023/10/15 05:42:36;;;;;;;4.18;1.52;;;6.60;99.90;;;;;;4997459;28;20113;-66
2023/10/15 05:45:06;;;;;;;2.17;1.40;;;6.70;99.90;;;;;;4997816;28;20022;-66
2023/10/15 05:47:33;;;;;;;6.90;1.50;;;6.50;99.90;;;;;;4997452;28;20026;-66
2023/10/15 05:49:58;;;;;;;4.35;1.58;;;6.40;99.90;;;;;;4997163;28;20069;-66
2023/10/15 05:52:24;;;;;;;7.13;1.25;;;6.10;99.90;;;;;;4997612;28;20026;-67
2023/10/15 05:54:53;;;;;;;2.17;1.20;;;6.10;99.90;;;;;;4998182;28;20030;-66
2023/10/15 05:57:21;;;;;;;4.88;1.25;;;6.10;99.90;;;;;;4997385;28;20022;-66
2023/10/15 05:59:47;;;;;;;4.10;1.25;;;6.10;99.90;;;;;;4997692;28;20104;-66
2023/10/15 06:02:13;;;;;;;5.82;1.48;;;6.30;99.90;;;;;;4997425;28;20033;-66
2023/10/15 06:04:38;;;;;;;4.97;1.25;;;6.40;99.90;;;;;;4997471;28;20022;-66
2023/10/15 06:07:07;;;;;;;2.15;1.20;;;6.30;99.90;;;;;;4997520;28;20034;-67
2023/10/15 06:09:34;;;;;;;3.83;1.60;;;6.40;99.90;;;;;;4997794;28;20031;-67
2023/10/15 06:12:00;;;;;;;5.88;1.80;;;6.50;99.90;;;;;;4997460;28;20026;-66
2023/10/15 06:14:28;;;;;;;6.80;1.58;;;6.70;99.90;;;;;;4997621;28;20072;-66
2023/10/15 06:16:56;;;;;;;6.07;2.30;;;7.00;99.90;;;;;;4997483;28;20049;-67
2023/10/15 06:19:21;;;;;;;7.63;1.38;;;7.50;99.90;;;;;;4996645;28;20116;-67
2023/10/15 06:21:47;;;;;;;4.40;1.40;;;7.80;99.90;;;;;;4997425;28;20054;-67
2023/10/15 06:24:14;;;;;;;5.45;1.50;;;8.10;99.90;;;;;;4996694;28;20023;-67
2023/10/15 06:26:39;;;;;;;9.00;1.33;;;8.20;99.90;;;;;;4996340;28;20034;-67
2023/10/15 06:29:06;;;;;;;3.92;1.60;;;8.30;99.90;;;;;;4996566;28;20053;-67
2023/10/15 06:31:32;;;;;;;7.32;1.17;;;8.40;99.90;;;;;;4997355;28;20034;-67
2023/10/15 06:33:57;;;;;;;7.60;1.00;;;8.30;99.90;;;;;;4997237;28;20069;-67
2023/10/15 06:36:23;;;;;;;2.95;1.35;;;8.30;99.90;;;;;;4997159;28;20026;-67
2023/10/15 06:38:50;;;;;;;13.30;1.88;;;8.40;99.90;;;;;;4996554;28;20029;-67
2023/10/15 06:41:16;;;;;;;4.18;1.70;;;8.40;99.90;;;;;;4997565;28;20041;-68
2023/10/15 06:43:41;;;;;;;4.45;1.50;;;8.40;99.90;;;;;;4997254;28;20022;-67
2023/10/15 06:46:07;;;;;;;4.95;1.67;;;8.50;99.90;;;;;;4996432;28;20022;-67
2023/10/15 06:48:37;;;;;;;4.88;1.98;;;8.60;99.90;;;;;;4997215;28;20061;-67
2023/10/15 06:51:05;;;;;;;5.43;1.45;;;8.60;99.90;;;;;;4997280;28;20033;-67
2023/10/15 06:53:31;;;;;;;4.75;2.10;;;8.70;99.90;;;;;;4997159;28;20026;-67
2023/10/15 06:55:57;;;;;;;3.92;1.20;;;8.70;99.90;;;;;;4997042;28;20054;-67
2023/10/15 06:58:23;;;;;;;7.05;1.38;;;8.90;99.90;;;;;;4997133;28;20073;-67
2023/10/15 07:00:48;;;;;;;7.15;1.60;;;8.90;99.90;;;;;;4999899;28;20072;-67
2023/10/15 07:03:15;;;;;;;4.25;1.45;;;9.00;99.90;;;;;;4997906;28;20022;-67
2023/10/15 07:05:41;;;;;;;6.57;1.33;;;9.10;99.90;;;;;;4996479;28;20023;-67
2023/10/15 07:08:07;;;;;;;6.93;1.33;;;9.10;99.90;;;;;;4984010;28;20023;-67
2023/10/15 07:10:33;;;;;;;4.32;1.75;;;9.20;99.90;;;;;;4984908;28;20052;-67
2023/10/15 07:13:01;;;;;;;7.40;1.48;;;9.10;99.90;;;;;;4999878;28;20029;-67
2023/10/15 07:15:26;;;;;;;2.97;1.08;;;9.20;99.90;;;;;;4989188;28;20031;-67
2023/10/15 07:17:53;;;;;;;2.78;1.00;;;9.20;99.90;;;;;;4980153;28;20037;-67
2023/10/15 07:20:20;;;;;;;6.30;1.67;;;9.30;99.90;;;;;;4981214;28;20022;-67
2023/10/15 07:22:48;;;;;;;7.05;1.85;;;9.30;99.90;;;;;;4980429;28;20023;-67
2023/10/15 07:25:18;;;;;;;8.63;1.40;;;9.30;99.90;;;;;;4981184;28;20023;-67
2023/10/15 07:27:48;;;;;;;6.70;1.65;;;9.30;99.90;;;;;;4980795;28;20039;-67
2023/10/15 07:30:15;;;;;;;4.72;2.10;;;9.40;99.90;;;;;;4981000;28;20027;-69
2023/10/15 07:32:44;;;;;;;5.20;1.45;;;9.40;99.90;;;;;;5000462;28;20105;-69
2023/10/15 07:35:14;;;;;;;1.70;1.02;;;9.40;99.90;;;;;;5000285;28;20030;-68
2023/10/15 07:37:41;;;;;;;7.78;1.38;;;9.40;99.90;;;;;;4999098;28;20084;-68
2023/10/15 07:40:14;;;;;;;4.82;1.52;;;9.30;99.90;;;;;;5000386;28;20039;-68
2023/10/15 07:42:40;;;;;;;7.40;1.30;;;9.20;99.90;;;;;;5000169;28;20029;-68
2023/10/15 07:45:05;;;;;;;11.25;1.75;;;9.30;99.90;;;;;;4999118;28;20022;-67
2023/10/15 07:47:31;;;;;;;6.82;1.50;;;9.30;99.90;;;;;;4999113;28;20029;-67
2023/10/15 07:49:57;;;;;;;5.38;1.95;;;9.40;99.90;;;;;;4999031;28;20041;-67
2023/10/15 07:52:24;;;;;;;3.40;1.50;;;9.50;99.90;;;;;;4999875;28;20033;-67
2023/10/15 07:54:50;;;;;;;4.28;1.50;;;9.50;99.90;;;;;;4999905;28;20019;-67
2023/10/15 07:57:16;;;;;;;6.72;2.28;;;9.60;99.90;;;;;;4999673;28;20104;-67
2023/10/15 07:59:42;;;;;;;7.85;2.15;;;9.60;99.90;;;;;;4999868;28;20073;-67
2023/10/15 08:02:08;;;;;;;6.20;1.77;;;9.60;99.90;;;;;;4999842;28;20045;-66
2023/10/15 08:04:34;;;;;;;8.98;2.33;;;9.60;99.90;;;;;;4993467;28;20034;-67
2023/10/15 08:07:00;;;;;;;6.40;1.63;;;9.60;99.90;;;;;;4983745;28;20033;-66
2023/10/15 08:09:26;;;;;;;5.43;1.70;;;9.60;99.90;;;;;;4980279;28;20057;-67
2023/10/15 08:11:52;;;;;;;7.22;2.00;;;9.60;99.90;;;;;;4979548;28;20019;-67
2023/10/15 08:14:17;;;;;;;3.80;1.55;;;9.70;99.90;;;;;;4980503;28;20105;-67
2023/10/15 08:16:43;;;;;;;4.82;2.47;;;9.70;99.90;;;;;;4979387;28;20023;-67
2023/10/15 08:19:08;;;;;;;7.03;1.85;;;9.50;99.90;;;;;;4978936;28;20030;-68
2023/10/15 08:21:34;;;;;;;3.55;1.70;;;9.40;99.90;;;;;;4979834;28;20035;-68
2023/10/15 08:23:59;;;;;;;4.25;1.85;;;9.20;99.90;;;;;;4979813;28;20031;-67
2023/10/15 08:26:25;;;;;;;7.30;2.03;;;9.10;99.90;;;;;;5009467;23;20065;-69
2023/10/15 08:28:50;;;;;;;7.80;2.20;;;9.10;99.90;;;;;;5017522;28;20030;-70
2023/10/15 08:31:16;;;;;;;6.25;2.40;;;9.00;99.90;;;;;;5018696;28;20037;-70
2023/10/15 08:33:42;;;;;;;4.88;1.77;;;9.00;99.90;;;;;;5017816;28;20054;-70
2023/10/15 08:36:07;;;;;;;8.98;1.90;;;9.10;99.90;;;;;;5018763;28;20057;-69
2023/10/15 08:38:34;;;;;;;7.22;2.15;;;9.20;99.90;;;;;;5017625;28;20018;-70
2023/10/15 08:41:05;;;;;;;3.22;1.60;;;9.20;99.90;;;;;;5018076;28;20113;-70
2023/10/15 08:43:32;;;;;;;9.10;2.42;;;9.20;99.90;;;;;;5018586;28;20022;-70
2023/10/15 08:45:58;;;;;;;6.10;2.05;;;9.30;99.90;;;;;;5017570;28;20029;-70
2023/10/15 08:48:25;;;;;;;7.50;2.30;;;9.30;99.90;;;;;;5018242;28;20026;-70
2023/10/15 08:50:54;;;;;;;8.32;2.95;;;9.40;99.90;;;;;;5017515;28;20076;-70
2023/10/15 08:53:22;;;;;;;13.10;2.50;;;9.40;99.90;;;;;;5018464;28;20021;-70
2023/10/15 08:55:49;;;;;;;5.72;2.15;;;9.30;99.90;;;;;;5018230;28;20017;-70
2023/10/15 08:58:15;;;;;;;5.43;2.17;;;9.30;99.90;;;;;;5017629;28;20033;-70
2023/10/15 09:00:43;;;;;;;9.57;2.22;;;9.30;99.90;;;;;;5018296;28;20037;-70
2023/10/15 09:03:13;;;;;;;8.07;2.13;;;9.30;99.90;;;;;;5018100;28;20022;-70
2023/10/15 09:05:41;;;;;;;3.70;2.33;;;9.30;99.90;;;;;;5018527;28;20026;-70
2023/10/15 09:08:08;;;;;;;4.13;2.78;;;9.50;99.90;;;;;;5017905;28;20080;-70
2023/10/15 09:10:42;;;;;;;6.00;2.45;;;9.60;99.90;;;;;;5017761;28;20076;-70
2023/10/15 09:13:14;;;;;;;7.75;2.35;;;9.70;99.90;;;;;;5018313;28;20097;-70
2023/10/15 09:15:45;;;;;;;7.13;2.85;;;9.80;99.90;;;;;;5017851;28;20028;-70
2023/10/15 09:18:11;;;;;;;7.23;2.57;;;10.00;99.90;;;;;;5018076;28;20026;-70
2023/10/15 09:20:40;;;;;;;6.18;2.08;;;10.00;99.90;;;;;;5018079;28;20054;-70
2023/10/15 09:23:05;;;;;;;3.22;1.75;;;10.10;99.90;;;;;;5017140;28;20060;-70
2023/10/15 09:25:31;;;;;;;8.27;2.10;;;10.30;99.90;;;;;;5017943;28;20025;-70
2023/10/15 09:27:58;;;;;;;4.15;1.80;;;10.30;99.90;;;;;;5018292;28;20034;-70
2023/10/15 09:30:26;;;;;;;4.35;1.83;;;10.40;99.90;;;;;;5017002;28;20040;-70
2023/10/15 09:32:52;;;;;;;9.35;2.47;;;10.50;99.90;;;;;;5017687;28;20029;-70
2023/10/15 09:35:19;;;;;;;5.60;2.80;;;10.50;99.90;;;;;;5016828;28;20022;-70
2023/10/15 09:37:46;;;;;;;4.28;2.10;;;10.70;99.90;;;;;;5016781;28;20029;-70
2023/10/15 09:40:21;;;;;;;2.30;1.67;;;10.70;99.90;;;;;;5017804;28;20026;-70
2023/10/15 09:42:49;;;;;;;2.28;1.40;;;10.70;99.90;;;;;;5016764;28;20037;-70
2023/10/15 09:45:18;;;;;;;3.55;1.58;;;10.80;99.90;;;;;;5017518;28;20022;-70
2023/10/15 09:47:49;;;;;;;4.72;1.33;;;10.90;99.90;;;;;;5017413;28;20025;-70
2023/10/15 09:50:25;;;;;;;1.80;1.20;;;11.10;99.90;;;;;;5017729;28;20032;-70
2023/10/15 09:53:01;;;;;;;1.45;1.30;;;11.00;99.90;;;;;;5017741;28;20026;-70
2023/10/15 09:55:31;;;;;;;1.75;1.10;;;10.90;99.90;;;;;;5017580;28;20057;-70
2023/10/15 09:57:58;;;;;;;1.90;1.10;;;10.80;99.90;;;;;;5017331;28;20068;-70
2023/10/15 10:03:25;;;;;;;2.08;1.00;;;10.80;99.90;;;;;;5017914;28;20129;-70
2023/10/15 10:06:15;;;;;;;1.38;0.90;;;10.90;99.90;;;;;;5016453;28;20036;-70
2023/10/15 10:08:46;;;;;;;4.70;2.15;;;10.90;99.90;;;;;;5017285;28;20040;-70
2023/10/15 10:11:14;;;;;;;4.82;0.65;;;10.90;99.90;;;;;;5017343;28;20176;-70
2023/10/15 10:14:15;;;;;;;2.20;0.80;;;11.00;99.90;;;;;;5016660;28;20030;-70
2023/10/15 10:16:42;;;;;;;2.80;0.77;;;11.00;99.90;;;;;;5017072;28;20029;-70
2023/10/15 10:19:08;;;;;;;1.30;1.05;;;11.10;99.90;;;;;;5017249;28;20101;-70
2023/10/15 10:21:34;;;;;;;1.70;0.98;;;11.20;99.90;;;;;;5016546;28;20026;-70
2023/10/15 10:24:02;;;;;;;1.48;0.85;;;11.30;99.90;;;;;;5017223;28;20252;-70
2023/10/15 10:26:32;;;;;;;2.05;0.85;;;11.50;99.90;;;;;;5016327;28;20033;-70
2023/10/15 10:28:59;;;;;;;2.15;0.60;;;11.60;99.90;;;;;;5016975;28;20112;-70
2023/10/15 10:31:29;;;;;;;3.65;0.75;;;11.80;99.90;;;;;;5017599;28;20021;-70
2023/10/15 10:33:56;;;;;;;1.27;0.57;;;12.00;99.90;;;;;;5017433;28;20103;-70
2023/10/15 10:36:27;;;;;;;2.47;0.63;;;12.30;99.90;;;;;;5021332;28;20018;-68
2023/10/15 10:39:13;;;;;;;3.83;0.73;;;12.60;99.90;;;;;;5021208;28;20042;-68
2023/10/15 10:41:58;;;;;;;3.90;0.60;;;12.90;99.90;;;;;;5020098;28;20040;-68
2023/10/15 10:44:24;;;;;;;2.83;0.70;;;13.20;99.90;;;;;;5020110;28;20029;-68
2023/10/15 10:46:52;;;;;;;3.40;0.60;;;12.90;99.90;;;;;;5020944;28;20022;-68
2023/10/15 10:49:28;;;;;;;1.52;0.70;;;12.70;99.90;;;;;;5021259;28;20022;-68
2023/10/15 10:52:17;;;;;;;7.80;1.15;;;12.50;99.90;;;;;;5019884;28;20032;-68
2023/10/15 10:54:43;;;;;;;3.13;0.77;;;12.50;99.90;;;;;;5020963;28;20037;-68
2023/10/15 10:57:10;;;;;;;5.03;0.73;;;12.80;99.90;;;;;;5020664;28;20033;-68
2023/10/15 10:59:41;;;;;;;3.50;0.50;;;12.70;99.90;;;;;;5020501;28;20018;-68
2023/10/15 11:02:11;;;;;;;1.33;0.70;;;12.70;99.90;;;;;;5020625;28;20029;-69
2023/10/15 11:04:39;;;;;;;2.13;1.20;;;13.00;99.90;;;;;;5019589;28;20022;-69
2023/10/15 11:07:04;;;;;;;1.20;0.80;;;12.90;99.90;;;;;;5019782;28;20030;-68
2023/10/15 11:09:30;;;;;;;1.92;0.60;;;13.00;99.90;;;;;;5020362;28;20028;-68
2023/10/15 11:11:57;;;;;;;3.92;0.90;;;13.10;99.90;;;;;;5020349;28;20042;-68
2023/10/15 11:14:27;;;;;;;1.45;0.50;;;13.40;99.90;;;;;;5020314;28;20018;-67
2023/10/15 11:16:57;;;;;;;2.95;0.70;;;13.60;99.90;;;;;;5020146;28;20022;-68
2023/10/15 11:19:32;;;;;;;5.18;0.65;;;14.10;99.90;;;;;;5020133;28;20026;-68
2023/10/15 11:21:58;;;;;;;1.15;0.65;;;14.50;99.90;;;;;;5020274;28;20061;-67
2023/10/15 11:24:25;;;;;;;2.67;0.68;;;14.30;99.90;;;;;;5019134;28;20022;-67
2023/10/15 11:26:54;;;;;;;2.28;0.60;;;14.90;99.90;;;;;;5020029;28;20030;-67
2023/10/15 11:29:22;;;;;;;3.17;0.90;;;15.30;99.90;;;;;;5020019;28;20124;-67
2023/10/15 11:31:49;;;;;;;2.17;0.70;;;14.90;99.90;;;;;;5019875;28;20049;-67
2023/10/15 11:34:22;;;;;;;8.25;0.68;;;14.60;99.90;;;;;;5019152;28;20018;-67
2023/10/15 11:36:49;;;;;;;2.05;0.50;;;14.50;99.90;;;;;;5019773;28;20029;-67
2023/10/15 11:39:18;;;;;;;2.38;0.82;;;14.20;99.90;;;;;;5019882;28;20034;-67
2023/10/15 11:41:51;;;;;;;2.45;0.85;;;14.20;99.90;;;;;;5019682;28;20025;-67
2023/10/15 11:44:28;;;;;;;1.52;0.70;;;14.20;99.90;;;;;;5019805;28;20033;-67
2023/10/15 11:46:54;;;;;;;4.65;0.70;;;14.00;99.90;;;;;;5018554;28;20025;-67
2023/10/15 11:49:24;;;;;;;1.05;0.50;;;14.20;99.90;;;;;;5019866;28;20024;-67
2023/10/15 11:51:55;;;;;;;0.95;0.60;;;14.30;99.90;;;;;;5019072;28;20072;-67
2023/10/15 11:54:29;;;;;;;2.65;0.93;;;14.60;99.90;;;;;;5019388;28;20030;-67
2023/10/15 11:56:56;;;;;;;0.63;0.55;;;15.10;99.90;;;;;;5019572;28;20017;-67
2023/10/15 11:59:22;;;;;;;3.45;0.60;;;15.90;99.90;;;;;;5019452;28;20032;-67
2023/10/15 12:01:51;;;;;;;3.70;0.80;;;16.20;99.90;;;;;;5019610;28;20100;-69
2023/10/15 12:04:17;;;;;;;2.22;0.80;;;16.10;99.90;;;;;;5019015;28;20030;-69
2023/10/15 12:06:43;;;;;;;1.95;0.70;;;16.40;99.90;;;;;;5019282;28;20096;-69
2023/10/15 12:09:12;;;;;;;0.68;0.43;;;16.50;99.90;;;;;;5019390;28;20022;-69
2023/10/15 12:11:39;;;;;;;2.60;0.70;;;16.80;99.90;;;;;;5019378;28;20017;-69
2023/10/15 12:14:05;;;;;;;1.85;0.70;;;16.50;99.90;;;;;;5018317;28;20026;-69
2023/10/15 12:16:31;;;;;;;2.05;0.80;;;15.70;99.90;;;;;;5018718;28;20080;-69
2023/10/15 12:18:56;;;;;;;2.08;0.60;;;15.30;99.90;;;;;;5018192;28;20121;-69
2023/10/15 12:21:22;;;;;;;1.67;0.55;;;14.90;99.90;;;;;;5019369;28;20038;-69
2023/10/15 12:23:47;;;;;;;3.67;0.65;;;14.60;99.90;;;;;;5018610;28;20022;-69
2023/10/15 12:26:13;;;;;;;2.58;0.82;;;14.10;99.90;;;;;;5018720;28;20026;-69
2023/10/15 12:28:44;;;;;;;1.35;0.73;;;14.00;99.90;;;;;;5019051;28;20018;-69
2023/10/15 12:31:10;;;;;;;5.72;0.50;;;13.90;99.90;;;;;;5017971;28;20105;-69
2023/10/15 12:33:36;;;;;;;1.15;0.50;;;13.80;99.90;;;;;;5018927;28;20022;-69
2023/10/15 12:36:02;;;;;;;3.70;0.73;;;13.80;99.90;;;;;;5019134;28;20021;-69
2023/10/15 12:38:28;;;;;;;2.20;0.70;;;13.70;99.90;;;;;;5017818;28;20025;-69
2023/10/15 12:40:55;;;;;;;1.05;0.50;;;13.70;99.90;;;;;;5017907;28;20041;-69
2023/10/15 12:43:21;;;;;;;2.33;0.63;;;13.60;99.90;;;;;;5018873;28;20204;-69
2023/10/15 12:45:52;;;;;;;1.42;0.68;;;13.60;99.90;;;;;;5018825;28;20036;-69
2023/10/15 12:48:18;;;;;;;0.98;0.60;;;13.40;99.90;;;;;;5018925;28;20092;-67
2023/10/15 12:50:45;;;;;;;0.93;0.30;;;13.40;99.90;;;;;;5018591;28;20022;-67
2023/10/15 12:53:10;;;;;;;2.88;0.70;;;13.40;99.90;;;;;;5018562;28;20108;-66
2023/10/15 12:55:36;;;;;;;2.50;0.70;;;13.40;99.90;;;;;;5017553;28;20114;-66
2023/10/15 12:58:02;;;;;;;2.13;0.60;;;13.30;99.90;;;;;;5018324;28;20026;-66
2023/10/15 13:00:28;;;;;;;2.88;0.70;;;13.40;99.90;;;;;;5018401;28;20109;-66
2023/10/15 13:02:54;;;;;;;1.85;0.73;;;13.40;99.90;;;;;;5018590;28;20101;-67
2023/10/15 13:05:22;;;;;;;2.28;0.70;;;13.40;99.90;;;;;;5017340;28;20065;-67
2023/10/15 13:07:49;;;;;;;2.95;0.50;;;13.40;99.90;;;;;;5017941;28;20030;-67
2023/10/15 13:10:17;;;;;;;1.38;0.60;;;13.70;99.90;;;;;;5017303;28;20113;-67
2023/10/15 13:12:44;;;;;;;2.50;0.70;;;13.50;99.90;;;;;;5018168;28;20018;-67
2023/10/15 13:15:10;;;;;;;2.47;0.70;;;13.60;99.90;;;;;;5018070;28;20017;-66
2023/10/15 13:17:37;;;;;;;1.48;0.85;;;13.70;99.90;;;;;;5018051;28;20083;-67
2023/10/15 13:20:05;;;;;;;1.33;0.70;;;14.00;99.90;;;;;;5017205;28;20033;-67
2023/10/15 13:22:32;;;;;;;1.95;0.90;;;14.00;99.90;;;;;;5017886;28;20052;-67
2023/10/15 13:24:57;;;;;;;2.78;0.80;;;13.90;99.90;;;;;;5018409;28;20050;-67